Time;durP1;ratioP1;P1;durP2;ratioP2;P2;SDS_P1;SDS_P2;PMS_P1;PMS_P2;Temp;Humidity;BMP_temperature;BMP_pressure;BME280_temperature;BME280_humidity;BME280_pressure;Samples;Min_cycle;Max_cycle;Signal;HPM_P1;HPM_P2
2021/12/18 00:00:51;;;;;;;1.77;1.17;;;;;;;;;;5011425;28;20195;-68
2021/12/18 00:03:17;;;;;;;1.70;1.20;;;;;;;;;;5031952;28;20217;-68
2021/12/18 00:05:43;;;;;;;2.10;1.33;;;;;;;;;;5009809;28;20187;-69
2021/12/18 00:08:09;;;;;;;2.03;1.40;;;;;;;;;;5024667;28;20705;-69
2021/12/18 00:10:37;;;;;;;1.37;1.17;;;;;;;;;;5018777;28;20452;-69
2021/12/18 00:13:02;;;;;;;3.63;1.47;;;;;;;;;;5019546;28;20180;-69
2021/12/18 00:15:29;;;;;;;1.50;1.33;;;;;;;;;;5015658;28;20433;-69
2021/12/18 00:17:55;;;;;;;1.87;1.20;;;;;;;;;;5018693;28;20185;-69
2021/12/18 00:20:20;;;;;;;1.90;1.10;;;;;;;;;;5027105;28;20451;-69
2021/12/18 00:22:46;;;;;;;1.73;1.00;;;;;;;;;;5018762;28;20227;-68
2021/12/18 00:25:12;;;;;;;1.13;1.03;;;;;;;;;;5012261;28;20199;-69
2021/12/18 00:27:38;;;;;;;0.80;0.80;;;;;;;;;;5019211;28;20253;-70
2021/12/18 00:30:04;;;;;;;0.90;0.80;;;;;;;;;;5018202;28;20184;-70
2021/12/18 00:32:29;;;;;;;0.93;0.87;;;;;;;;;;5019383;28;20180;-70
2021/12/18 00:34:55;;;;;;;1.57;1.10;;;;;;;;;;5019607;28;20517;-70
2021/12/18 00:37:20;;;;;;;1.47;0.90;;;;;;;;;;5019156;28;20191;-69
2021/12/18 00:40:08;;;;;;;1.40;1.10;;;;;;;;;;5017645;28;20691;-70
2021/12/18 00:45:05;;;;;;;1.20;0.90;;;;;;;;;;5019102;28;20549;-70
2021/12/18 00:47:30;;;;;;;0.80;0.80;;;;;;;;;;5022380;28;20433;-70
2021/12/18 00:50:01;;;;;;;0.80;0.80;;;;;;;;;;5025268;28;21115;-71
2021/12/18 00:52:26;;;;;;;1.00;0.90;;;;;;;;;;5022277;28;20172;-70
2021/12/18 00:54:52;;;;;;;1.10;0.90;;;;;;;;;;5020405;28;20485;-70
2021/12/18 00:57:17;;;;;;;1.13;0.80;;;;;;;;;;5023268;28;20303;-71
2021/12/18 00:59:43;;;;;;;1.23;1.13;;;;;;;;;;5008614;28;21153;-72
2021/12/18 01:02:08;;;;;;;1.80;0.97;;;;;;;;;;5021742;28;20176;-70
2021/12/18 01:04:33;;;;;;;0.90;0.90;;;;;;;;;;5019324;28;20203;-70
2021/12/18 01:06:59;;;;;;;0.70;0.70;;;;;;;;;;5022947;28;20240;-71
2021/12/18 01:09:43;;;;;;;1.40;1.07;;;;;;;;;;5021156;28;20173;-69
2021/12/18 01:12:09;;;;;;;1.60;1.27;;;;;;;;;;5023050;28;20184;-70
2021/12/18 01:25:12;;;;;;;1.63;1.40;;;;;;;;;;5020861;28;21123;-71
2021/12/18 01:27:37;;;;;;;1.43;1.33;;;;;;;;;;5020812;28;20447;-71
2021/12/18 01:30:04;;;;;;;2.67;1.30;;;;;;;;;;5018342;28;20176;-70
2021/12/18 01:32:30;;;;;;;2.00;1.13;;;;;;;;;;5024458;28;20244;-71
2021/12/18 01:34:58;;;;;;;1.70;1.57;;;;;;;;;;5017853;28;21140;-69
2021/12/18 01:37:24;;;;;;;1.50;1.27;;;;;;;;;;5031081;28;20431;-69
2021/12/18 01:39:52;;;;;;;1.30;1.20;;;;;;;;;;5021309;28;20458;-69
2021/12/18 01:52:57;;;;;;;1.10;1.00;;;;;;;;;;5020634;28;21759;-69
2021/12/18 01:55:33;;;;;;;1.30;1.20;;;;;;;;;;5023185;28;20617;-69
2021/12/18 01:57:59;;;;;;;1.27;1.00;;;;;;;;;;5024786;28;20257;-70
2021/12/18 02:00:26;;;;;;;1.90;1.43;;;;;;;;;;5025552;28;20552;-69
2021/12/18 02:02:52;;;;;;;1.30;1.10;;;;;;;;;;5030041;28;20426;-69
2021/12/18 02:05:17;;;;;;;2.40;0.97;;;;;;;;;;5023688;28;20995;-69
2021/12/18 02:07:42;;;;;;;1.20;1.00;;;;;;;;;;5020143;28;20178;-69
2021/12/18 02:10:21;;;;;;;1.27;1.00;;;;;;;;;;5022886;28;20652;-69
2021/12/18 02:12:58;;;;;;;1.10;1.00;;;;;;;;;;5024404;28;20652;-69
2021/12/18 02:20:56;;;;;;;1.43;0.90;;;;;;;;;;5025279;28;20470;-69
2021/12/18 02:23:22;;;;;;;0.97;0.70;;;;;;;;;;5026802;28;20966;-71
2021/12/18 02:25:47;;;;;;;0.83;0.83;;;;;;;;;;5018387;28;20180;-69
2021/12/18 02:28:20;;;;;;;1.43;0.97;;;;;;;;;;5018184;28;20553;-69
2021/12/18 02:30:47;;;;;;;1.30;1.10;;;;;;;;;;5024170;28;20211;-70
2021/12/18 02:33:13;;;;;;;1.20;0.93;;;;;;;;;;5020744;28;20433;-69
2021/12/18 02:35:45;;;;;;;1.37;1.20;;;;;;;;;;5032583;28;20811;-70
2021/12/18 02:38:15;;;;;;;1.20;1.10;;;;;;;;;;5027902;28;20636;-69
2021/12/18 02:40:52;;;;;;;1.20;1.10;;;;;;;;;;5023423;28;20476;-71
2021/12/18 02:43:18;;;;;;;1.10;0.90;;;;;;;;;;5026252;28;20456;-69
2021/12/18 02:45:43;;;;;;;1.57;1.03;;;;;;;;;;5019710;28;20922;-70
2021/12/18 02:48:09;;;;;;;1.90;1.30;;;;;;;;;;5022862;28;20541;-69
2021/12/18 02:50:37;;;;;;;1.33;1.13;;;;;;;;;;5017855;28;20279;-70
2021/12/18 02:53:04;;;;;;;2.13;1.50;;;;;;;;;;5022756;28;20180;-69
2021/12/18 02:55:29;;;;;;;2.37;1.53;;;;;;;;;;5023905;28;20791;-70
2021/12/18 02:57:55;;;;;;;2.00;1.30;;;;;;;;;;5021152;28;20442;-69
2021/12/18 03:00:22;;;;;;;1.93;1.50;;;;;;;;;;5018057;28;20247;-69
2021/12/18 03:02:47;;;;;;;1.57;1.40;;;;;;;;;;5025838;28;20592;-69
2021/12/18 03:05:20;;;;;;;1.73;1.17;;;;;;;;;;5024466;28;20457;-69
2021/12/18 03:07:47;;;;;;;1.93;1.63;;;;;;;;;;5022999;28;20187;-69
2021/12/18 03:26:04;;;;;;;1.90;1.43;;;;;;;;;;5019726;28;20465;-70
2021/12/18 03:28:30;;;;;;;1.63;1.20;;;;;;;;;;5020056;28;20994;-69
2021/12/18 03:30:56;;;;;;;1.63;1.20;;;;;;;;;;5018990;28;20187;-69
2021/12/18 03:33:23;;;;;;;2.20;1.37;;;;;;;;;;5025159;28;20442;-69
2021/12/18 03:35:48;;;;;;;1.40;1.30;;;;;;;;;;5024733;28;20434;-69
2021/12/18 03:38:14;;;;;;;1.53;1.33;;;;;;;;;;5025694;28;20813;-69
2021/12/18 03:40:39;;;;;;;1.53;1.30;;;;;;;;;;5021580;28;20200;-69
2021/12/18 03:43:05;;;;;;;2.23;1.60;;;;;;;;;;5012223;28;20184;-69
2021/12/18 03:45:30;;;;;;;1.40;1.30;;;;;;;;;;5020188;28;20679;-68
2021/12/18 03:47:56;;;;;;;1.43;1.17;;;;;;;;;;5015497;28;20188;-71
2021/12/18 03:50:24;;;;;;;2.23;1.33;;;;;;;;;;5020844;28;20275;-69
2021/12/18 03:52:49;;;;;;;2.60;1.10;;;;;;;;;;5013140;28;20188;-69
2021/12/18 03:55:15;;;;;;;1.47;1.23;;;;;;;;;;5017523;28;20543;-70
2021/12/18 03:57:41;;;;;;;1.10;0.97;;;;;;;;;;5022488;28;20198;-69
2021/12/18 04:00:07;;;;;;;1.43;1.33;;;;;;;;;;5017845;28;20789;-69
2021/12/18 04:02:33;;;;;;;2.23;1.70;;;;;;;;;;5021981;28;20642;-69
2021/12/18 04:04:58;;;;;;;1.43;1.33;;;;;;;;;;5014238;28;21045;-69
2021/12/18 04:07:23;;;;;;;1.80;1.53;;;;;;;;;;5016575;28;20205;-69
2021/12/18 04:09:49;;;;;;;1.57;1.47;;;;;;;;;;5019222;28;20195;-70
2021/12/18 04:12:15;;;;;;;2.60;1.40;;;;;;;;;;5021874;28;20184;-69
2021/12/18 04:14:40;;;;;;;1.57;1.47;;;;;;;;;;5019710;28;20207;-69
2021/12/18 04:17:05;;;;;;;2.27;1.70;;;;;;;;;;5016218;28;20184;-70
2021/12/18 04:19:31;;;;;;;2.50;1.90;;;;;;;;;;5020779;28;20204;-69
2021/12/18 04:21:56;;;;;;;2.03;1.60;;;;;;;;;;5023916;28;20180;-70
2021/12/18 04:24:25;;;;;;;2.07;1.60;;;;;;;;;;5021622;28;20196;-69
2021/12/18 04:26:50;;;;;;;1.30;1.20;;;;;;;;;;5023785;28;20172;-69
2021/12/18 04:29:15;;;;;;;2.87;1.60;;;;;;;;;;5023492;28;20476;-69
2021/12/18 04:31:44;;;;;;;1.63;1.53;;;;;;;;;;5019662;28;22727;-69
2021/12/18 04:34:09;;;;;;;1.93;1.77;;;;;;;;;;5021910;28;20206;-71
2021/12/18 04:36:34;;;;;;;2.20;1.67;;;;;;;;;;5025153;28;20430;-70
2021/12/18 04:39:00;;;;;;;1.37;1.10;;;;;;;;;;5025040;28;20346;-70
2021/12/18 04:41:38;;;;;;;1.70;1.60;;;;;;;;;;5021355;28;20194;-71
2021/12/18 04:44:04;;;;;;;2.10;1.70;;;;;;;;;;5023926;28;20203;-70
2021/12/18 04:46:29;;;;;;;1.77;1.30;;;;;;;;;;5023567;28;21133;-70
2021/12/18 04:49:15;;;;;;;1.33;1.10;;;;;;;;;;5029504;28;20515;-70
2021/12/18 04:51:41;;;;;;;2.63;1.70;;;;;;;;;;5024859;28;20199;-70
2021/12/18 04:54:07;;;;;;;1.10;1.00;;;;;;;;;;5023617;28;20457;-70
2021/12/18 04:56:35;;;;;;;1.70;1.37;;;;;;;;;;5022933;28;20535;-72
2021/12/18 04:59:00;;;;;;;1.67;1.43;;;;;;;;;;5020964;28;20265;-70
2021/12/18 05:01:26;;;;;;;2.50;1.20;;;;;;;;;;5024114;28;20528;-70
2021/12/18 05:03:51;;;;;;;1.37;1.27;;;;;;;;;;5021254;28;21022;-70
2021/12/18 05:06:17;;;;;;;1.27;1.17;;;;;;;;;;5021823;28;20191;-70
2021/12/18 05:08:42;;;;;;;1.10;1.10;;;;;;;;;;5024827;28;20269;-70
2021/12/18 05:11:07;;;;;;;2.30;1.30;;;;;;;;;;5022510;28;20195;-70
2021/12/18 05:13:33;;;;;;;1.50;1.40;;;;;;;;;;5024935;28;20204;-69
2021/12/18 05:16:01;;;;;;;1.47;1.23;;;;;;;;;;5017075;28;21044;-70
2021/12/18 05:18:26;;;;;;;1.57;1.40;;;;;;;;;;5017140;28;20182;-70
2021/12/18 05:20:52;;;;;;;2.30;1.40;;;;;;;;;;5020058;28;20466;-70
2021/12/18 05:23:17;;;;;;;3.50;1.60;;;;;;;;;;5019745;28;20176;-70
2021/12/18 05:25:42;;;;;;;1.37;1.27;;;;;;;;;;5023508;28;20187;-70
2021/12/18 05:28:08;;;;;;;1.87;1.67;;;;;;;;;;5020953;28;20180;-71
2021/12/18 05:30:33;;;;;;;2.10;1.80;;;;;;;;;;5020289;28;20697;-70
2021/12/18 05:32:58;;;;;;;2.07;1.87;;;;;;;;;;5021395;28;20183;-69
2021/12/18 05:35:26;;;;;;;2.00;1.80;;;;;;;;;;5023051;28;20795;-70
2021/12/18 05:37:54;;;;;;;3.10;1.43;;;;;;;;;;5025992;28;20195;-71
2021/12/18 05:40:37;;;;;;;1.57;1.30;;;;;;;;;;5026354;28;20454;-70
2021/12/18 05:43:03;;;;;;;3.50;1.77;;;;;;;;;;5030283;28;21822;-70
2021/12/18 05:45:28;;;;;;;2.80;1.80;;;;;;;;;;5027193;28;20437;-69
2021/12/18 05:47:54;;;;;;;2.53;1.47;;;;;;;;;;5025334;28;20633;-69
2021/12/18 05:50:20;;;;;;;2.50;1.83;;;;;;;;;;5020537;28;20190;-70
2021/12/18 05:52:47;;;;;;;1.80;1.70;;;;;;;;;;5019479;28;21416;-69
2021/12/18 05:55:14;;;;;;;3.13;1.90;;;;;;;;;;5021223;28;20822;-69
2021/12/18 05:57:40;;;;;;;1.80;1.70;;;;;;;;;;5021035;28;20461;-69
2021/12/18 06:00:08;;;;;;;2.07;1.40;;;;;;;;;;5026686;28;20906;-70
2021/12/18 06:02:34;;;;;;;1.90;1.40;;;;;;;;;;5023827;28;20181;-70
2021/12/18 06:04:59;;;;;;;1.70;1.60;;;;;;;;;;5019818;28;20512;-70
2021/12/18 06:07:38;;;;;;;2.17;1.50;;;;;;;;;;5023359;28;20195;-69
2021/12/18 06:10:04;;;;;;;2.40;1.90;;;;;;;;;;5023044;28;20180;-69
2021/12/18 06:12:29;;;;;;;2.60;1.70;;;;;;;;;;5023905;28;20867;-70
2021/12/18 06:14:54;;;;;;;3.00;1.73;;;;;;;;;;5021332;28;20608;-71
2021/12/18 06:17:19;;;;;;;1.50;1.40;;;;;;;;;;5023422;28;20176;-69
2021/12/18 06:19:45;;;;;;;2.50;1.83;;;;;;;;;;5016923;28;20354;-69
2021/12/18 06:22:19;;;;;;;2.10;1.53;;;;;;;;;;5005815;28;20188;-70
2021/12/18 06:24:44;;;;;;;2.63;1.50;;;;;;;;;;5021883;28;20668;-70
2021/12/18 06:27:10;;;;;;;5.37;1.80;;;;;;;;;;5021200;28;20438;-70
2021/12/18 06:29:38;;;;;;;2.97;1.63;;;;;;;;;;5037698;28;20269;-72
2021/12/18 06:32:04;;;;;;;1.47;1.10;;;;;;;;;;5016317;28;20213;-70
2021/12/18 06:34:32;;;;;;;3.83;1.73;;;;;;;;;;5022834;28;20457;-70
2021/12/18 06:36:57;;;;;;;2.63;1.30;;;;;;;;;;5023096;28;20314;-69
2021/12/18 06:39:23;;;;;;;2.30;1.47;;;;;;;;;;5021250;28;20450;-69
2021/12/18 06:41:48;;;;;;;4.27;2.00;;;;;;;;;;5024762;28;20180;-70
2021/12/18 06:44:14;;;;;;;2.00;1.67;;;;;;;;;;5022736;28;20204;-70
2021/12/18 06:46:39;;;;;;;2.63;1.40;;;;;;;;;;5022503;28;20191;-69
2021/12/18 06:49:06;;;;;;;3.23;1.20;;;;;;;;;;5018361;28;20212;-69
2021/12/18 06:51:31;;;;;;;2.70;1.60;;;;;;;;;;5018153;28;20731;-69
2021/12/18 06:53:57;;;;;;;4.37;1.30;;;;;;;;;;5019300;28;20455;-70
2021/12/18 06:56:22;;;;;;;2.63;1.57;;;;;;;;;;5021385;28;20194;-69
2021/12/18 06:58:47;;;;;;;6.67;1.57;;;;;;;;;;5021903;28;21820;-69
2021/12/18 07:01:13;;;;;;;1.80;1.70;;;;;;;;;;5022378;28;20214;-69
2021/12/18 07:03:38;;;;;;;5.43;1.93;;;;;;;;;;5015395;28;20204;-69
2021/12/18 07:06:12;;;;;;;3.60;2.03;;;;;;;;;;5014429;28;20947;-69
2021/12/18 07:08:38;;;;;;;6.60;2.10;;;;;;;;;;5021087;28;20179;-69
2021/12/18 07:11:03;;;;;;;5.77;1.80;;;;;;;;;;5015694;28;20434;-70
2021/12/18 07:13:29;;;;;;;6.47;2.10;;;;;;;;;;5016404;28;20204;-71
2021/12/18 07:15:55;;;;;;;7.33;2.20;;;;;;;;;;5017265;28;20305;-69
2021/12/18 07:18:42;;;;;;;4.83;2.33;;;;;;;;;;5017757;28;21018;-69
2021/12/18 07:21:06;;;;;;;8.17;2.00;;;;;;;;;;5024386;28;20702;-69
2021/12/18 07:23:35;;;;;;;5.03;1.70;;;;;;;;;;5024409;28;20458;-69
2021/12/18 07:26:03;;;;;;;9.83;2.23;;;;;;;;;;5023601;28;20176;-70
2021/12/18 07:28:29;;;;;;;7.73;2.40;;;;;;;;;;5026501;28;20434;-69
2021/12/18 07:30:54;;;;;;;7.90;2.53;;;;;;;;;;5023500;28;20437;-68
2021/12/18 07:33:19;;;;;;;7.13;2.23;;;;;;;;;;5025873;28;20285;-69
2021/12/18 07:35:45;;;;;;;5.77;2.37;;;;;;;;;;5026313;28;20250;-68
2021/12/18 07:38:11;;;;;;;9.10;2.47;;;;;;;;;;5027058;28;20179;-68
2021/12/18 07:40:37;;;;;;;7.33;2.37;;;;;;;;;;5023700;28;20287;-69
2021/12/18 07:43:02;;;;;;;6.63;2.30;;;;;;;;;;5022328;28;20434;-69
2021/12/18 07:45:28;;;;;;;9.90;1.93;;;;;;;;;;5018191;28;20186;-69
2021/12/18 07:47:53;;;;;;;6.00;2.00;;;;;;;;;;5018553;28;20397;-68
2021/12/18 07:50:20;;;;;;;4.73;1.60;;;;;;;;;;5019875;28;20347;-69
2021/12/18 07:52:49;;;;;;;3.60;1.37;;;;;;;;;;5019188;28;20229;-70
2021/12/18 07:55:14;;;;;;;3.57;1.10;;;;;;;;;;5027323;28;20464;-69
2021/12/18 07:57:39;;;;;;;2.50;0.80;;;;;;;;;;5029215;28;20426;-69
2021/12/18 08:00:06;;;;;;;3.70;0.93;;;;;;;;;;5026340;28;21200;-69
2021/12/18 08:02:32;;;;;;;3.33;1.13;;;;;;;;;;5026728;28;20313;-69
2021/12/18 08:04:57;;;;;;;1.87;1.00;;;;;;;;;;5025660;28;20832;-69
2021/12/18 08:07:22;;;;;;;2.37;0.87;;;;;;;;;;5029588;28;20180;-69
2021/12/18 08:12:35;;;;;;;4.00;1.10;;;;;;;;;;5027471;28;20195;-70
2021/12/18 08:15:00;;;;;;;3.87;1.23;;;;;;;;;;5027097;28;20454;-69
2021/12/18 08:17:25;;;;;;;4.47;1.27;;;;;;;;;;5024070;28;20816;-69
2021/12/18 08:19:51;;;;;;;2.73;1.30;;;;;;;;;;5022461;28;20686;-69
2021/12/18 08:22:16;;;;;;;4.13;1.60;;;;;;;;;;5020100;28;20184;-69
2021/12/18 08:24:48;;;;;;;4.40;1.40;;;;;;;;;;5016003;28;20203;-69
2021/12/18 08:27:13;;;;;;;12.37;1.50;;;;;;;;;;5031772;28;20175;-69
2021/12/18 08:29:39;;;;;;;5.20;1.40;;;;;;;;;;5027333;28;20437;-69
2021/12/18 08:32:04;;;;;;;3.53;1.50;;;;;;;;;;5031551;28;21078;-69
2021/12/18 08:34:35;;;;;;;5.77;1.60;;;;;;;;;;5031561;28;20211;-69
2021/12/18 08:37:03;;;;;;;4.90;1.83;;;;;;;;;;5028405;28;20176;-69
2021/12/18 08:39:28;;;;;;;9.57;2.30;;;;;;;;;;5029995;28;20449;-69
2021/12/18 08:41:54;;;;;;;13.37;3.30;;;;;;;;;;5032379;28;20435;-69
2021/12/18 08:44:25;;;;;;;5.07;1.97;;;;;;;;;;5021050;28;20229;-69
2021/12/18 08:46:51;;;;;;;5.07;1.70;;;;;;;;;;5025267;28;20982;-69
2021/12/18 08:49:18;;;;;;;4.20;1.53;;;;;;;;;;5020999;28;20176;-68
2021/12/18 08:51:43;;;;;;;6.60;2.33;;;;;;;;;;5026676;28;20190;-68
2021/12/18 08:54:14;;;;;;;7.47;2.00;;;;;;;;;;5022831;28;21456;-69
2021/12/18 08:56:40;;;;;;;6.30;2.00;;;;;;;;;;5027913;28;20823;-68
2021/12/18 08:59:08;;;;;;;7.97;2.23;;;;;;;;;;5028206;28;20432;-68
2021/12/18 09:01:34;;;;;;;6.73;1.53;;;;;;;;;;5026636;28;20195;-70
2021/12/18 09:04:02;;;;;;;8.07;2.03;;;;;;;;;;5022809;28;20949;-71
2021/12/18 09:06:27;;;;;;;8.90;1.80;;;;;;;;;;5025168;28;20172;-68
2021/12/18 09:08:55;;;;;;;5.67;1.37;;;;;;;;;;5024247;28;20491;-68
2021/12/18 09:11:21;;;;;;;6.30;2.33;;;;;;;;;;5030988;28;20200;-69
2021/12/18 09:13:46;;;;;;;7.90;2.10;;;;;;;;;;5030041;28;20538;-69
2021/12/18 09:16:12;;;;;;;10.10;2.63;;;;;;;;;;5021579;28;20192;-69
2021/12/18 09:18:37;;;;;;;8.07;2.50;;;;;;;;;;5021577;28;20431;-68
2021/12/18 09:21:03;;;;;;;11.23;2.60;;;;;;;;;;5016727;28;20206;-69
2021/12/18 09:23:28;;;;;;;7.07;1.90;;;;;;;;;;5024644;28;20203;-69
2021/12/18 09:25:53;;;;;;;6.50;2.07;;;;;;;;;;5023508;28;20184;-69
2021/12/18 09:28:19;;;;;;;9.77;2.50;;;;;;;;;;5022677;28;20242;-68
2021/12/18 09:30:44;;;;;;;9.67;2.10;;;;;;;;;;5016413;28;20338;-69
2021/12/18 09:33:13;;;;;;;7.03;2.00;;;;;;;;;;5023143;28;20199;-69
2021/12/18 09:35:38;;;;;;;8.67;2.10;;;;;;;;;;5014932;28;20271;-68
2021/12/18 09:38:06;;;;;;;7.03;2.20;;;;;;;;;;5013659;28;20437;-68
2021/12/18 09:40:41;;;;;;;9.33;2.23;;;;;;;;;;5019710;28;20192;-68
2021/12/18 09:44:50;;;;;;;7.43;2.20;;;;;;;8.93;100.00;103987.06;5030873;28;20685;-68
2021/12/18 09:47:17;;;;;;;10.93;3.07;;;;;;;8.64;100.00;103952.53;5026402;28;20445;-69
2021/12/18 09:49:44;;;;;;;10.10;2.40;;;;;;;8.43;100.00;103928.19;5035386;28;20442;-68
2021/12/18 09:52:09;;;;;;;9.63;2.70;;;;;;;8.67;100.00;103928.25;5029508;28;20563;-68
2021/12/18 09:54:35;;;;;;;5.97;2.10;;;;;;;8.84;100.00;103967.19;5036863;28;20926;-68
2021/12/18 09:57:00;;;;;;;4.23;2.27;;;;;;;8.64;100.00;103935.63;5043761;28;20190;-68
2021/12/18 09:59:26;;;;;;;9.63;1.87;;;;;;;8.81;100.00;103986.97;5038928;28;20186;-68
2021/12/18 10:01:52;;;;;;;10.93;1.97;;;;;;;8.69;100.00;103960.25;5034385;28;20198;-69
2021/12/18 10:04:44;;;;;;;9.47;1.87;;;;;;;8.78;100.00;103964.94;5031839;28;20332;-68
2021/12/18 10:07:15;;;;;;;7.07;2.40;;;;;;;8.93;100.00;103961.16;5034037;28;20454;-68
2021/12/18 10:09:40;;;;;;;6.63;2.30;;;;;;;8.77;100.00;103934.66;5036137;28;20738;-68
2021/12/18 10:12:24;;;;;;;6.77;2.50;;;;;;;8.92;100.00;103958.59;5046618;28;20453;-68
2021/12/18 10:14:58;;;;;;;6.93;2.47;;;;;;;8.68;100.00;103919.28;5041629;28;20722;-68
2021/12/18 10:17:39;;;;;;;5.13;1.80;;;;;;;8.65;100.00;103937.34;5040271;28;20449;-68
2021/12/18 10:20:10;;;;;;;7.93;2.07;;;;;;;8.79;100.00;103962.16;5041836;28;20808;-68
2021/12/18 10:22:52;;;;;;;7.67;2.00;;;;;;;8.88;100.00;103957.09;5042351;28;20948;-68
2021/12/18 10:25:27;;;;;;;6.93;2.40;;;;;;;8.66;100.00;103920.34;5034336;28;20878;-68
2021/12/18 10:28:08;;;;;;;11.60;1.97;;;;;;;8.79;100.00;103938.09;5035277;28;21739;-68
2021/12/18 10:30:33;;;;;;;4.73;1.47;;;;;;;8.76;100.00;103943.63;5035645;28;20479;-68
2021/12/18 10:33:08;;;;;;;12.93;2.53;;;;;;;8.51;100.00;103887.53;5036369;28;20778;-67
2021/12/18 10:35:51;;;;;;;14.30;2.43;;;;;;;8.48;100.00;103875.22;5031537;28;20632;-68
2021/12/18 10:38:52;;;;;;;9.00;2.40;;;;;;;8.67;100.00;103898.81;5036796;28;20442;-68
2021/12/18 10:41:32;;;;;;;5.80;1.60;;;;;;;8.43;100.00;103871.16;5037822;28;20812;-68
2021/12/18 10:44:12;;;;;;;7.00;2.00;;;;;;;8.82;100.00;103897.72;5039598;28;20572;-68
2021/12/18 10:46:43;;;;;;;8.00;2.30;;;;;;;9.01;100.00;103923.13;5037126;28;20854;-68
2021/12/18 10:49:14;;;;;;;5.23;1.87;;;;;;;8.98;100.00;103924.19;5043153;28;20454;-68
2021/12/18 10:51:41;;;;;;;6.33;1.90;;;;;;;8.97;100.00;103918.97;5038801;28;21037;-68
2021/12/18 10:54:24;;;;;;;6.10;1.63;;;;;;;8.90;100.00;103881.06;5038926;28;20458;-68
2021/12/18 10:56:53;;;;;;;7.63;1.95;;;;;;;9.06;100.00;103910.25;5025498;28;20515;-68
2021/12/18 10:59:36;;;;;;;6.17;2.20;;;;;;;8.93;100.00;103898.72;5024856;28;20247;-69
2021/12/18 11:02:11;;;;;;;9.20;2.23;;;;;;;8.79;100.00;103873.84;5026700;28;20442;-68
2021/12/18 11:04:39;;;;;;;7.80;2.17;;;;;;;8.53;100.00;103829.38;5035422;28;20564;-69
2021/12/18 11:07:20;;;;;;;6.40;2.07;;;;;;;9.07;100.00;103898.56;5028759;28;20477;-68
2021/12/18 11:09:59;;;;;;;5.40;1.83;;;;;;;8.37;100.00;103808.22;5026517;28;20442;-68
2021/12/18 11:15:09;;;;;;;5.53;1.93;;;;;;;8.76;100.00;103844.59;5027459;28;20473;-68
2021/12/18 11:17:35;;;;;;;4.50;2.10;;;;;;;8.56;100.00;103791.69;5023965;28;20931;-69
2021/12/18 11:20:01;;;;;;;8.27;1.93;;;;;;;8.95;100.00;103860.16;5017033;28;20727;-68
2021/12/18 11:22:26;;;;;;;5.17;1.97;;;;;;;9.11;100.00;103907.22;5024038;28;20260;-68
2021/12/18 11:25:05;;;;;;;9.90;2.43;;;;;;;8.95;100.00;103903.00;5024963;28;20465;-69
2021/12/18 11:27:34;;;;;;;7.60;2.13;;;;;;;8.72;100.00;103824.41;5032110;28;20188;-69
2021/12/18 11:30:06;;;;;;;5.77;2.10;;;;;;;9.11;100.00;103881.28;5028784;28;20446;-68
2021/12/18 11:32:34;;;;;;;6.80;1.87;;;;;;;8.73;100.00;103810.03;5030782;28;20499;-68
2021/12/18 11:35:03;;;;;;;6.50;1.87;;;;;;;8.68;100.00;103840.78;5031905;28;20463;-68
2021/12/18 11:37:39;;;;;;;8.73;2.43;;;;;;;9.01;100.00;103882.94;5030402;28;20427;-68
2021/12/18 11:40:06;;;;;;;10.67;2.40;;;;;;;8.80;100.00;103824.69;5022122;28;20500;-69
2021/12/18 11:42:33;;;;;;;8.40;2.40;;;;;;;9.09;100.00;103874.34;5017435;28;21045;-68
2021/12/18 11:45:01;;;;;;;9.00;2.33;;;;;;;9.05;100.00;103861.19;5024561;28;20465;-68
2021/12/18 11:47:42;;;;;;;7.87;2.20;;;;;;;9.12;100.00;103880.34;5026197;28;20460;-68
2021/12/18 11:50:19;;;;;;;7.60;2.20;;;;;;;9.17;100.00;103877.28;5022740;28;20522;-68
2021/12/18 11:53:13;;;;;;;5.20;1.77;;;;;;;9.13;100.00;103865.13;5012431;28;21104;-68
2021/12/18 11:55:48;;;;;;;7.10;2.27;;;;;;;9.29;100.00;103857.63;5026188;28;20469;-68
2021/12/18 11:58:25;;;;;;;4.50;1.73;;;;;;;9.17;100.00;103837.13;5016647;28;20441;-68
2021/12/18 12:00:51;;;;;;;8.17;1.97;;;;;;;9.11;100.00;103849.16;5020172;28;21031;-68
2021/12/18 12:03:54;;;;;;;5.53;2.20;;;;;;;9.23;100.00;103858.97;5026691;28;20465;-68
2021/12/18 12:06:32;;;;;;;7.13;2.23;;;;;;;8.63;100.00;103779.59;5015732;28;20476;-69
2021/12/18 12:09:44;;;;;;;5.47;1.90;;;;;;;8.88;100.00;103832.16;5017058;28;20492;-68
2021/12/18 12:12:13;;;;;;;13.70;2.43;;;;;;;9.10;100.00;103847.44;5020412;28;20848;-69
2021/12/18 12:14:42;;;;;;;6.53;2.37;;;;;;;9.26;100.00;103852.50;5027585;28;20470;-68
2021/12/18 12:17:12;;;;;;;6.90;2.10;;;;;;;9.24;100.00;103849.94;5019229;28;20533;-68
2021/12/18 12:19:40;;;;;;;7.23;2.70;;;;;;;8.93;100.00;103799.66;5019390;28;20555;-68
2021/12/18 12:22:12;;;;;;;8.50;2.03;;;;;;;9.14;100.00;103838.22;5024592;28;20549;-68
2021/12/18 12:24:56;;;;;;;6.20;1.70;;;;;;;9.32;100.00;103846.69;5012334;28;20474;-69
2021/12/18 12:27:30;;;;;;;4.30;2.10;;;;;;;9.29;100.00;103841.56;5016951;28;20434;-68
2021/12/18 12:29:57;;;;;;;4.97;1.57;;;;;;;9.28;100.00;103842.53;5022405;28;20448;-68
2021/12/18 12:32:24;;;;;;;5.73;2.00;;;;;;;9.20;100.00;103835.09;5014855;28;20817;-67
2021/12/18 12:35:00;;;;;;;6.60;1.53;;;;;;;9.26;100.00;103849.84;5017811;28;20489;-69
2021/12/18 12:37:25;;;;;;;5.13;1.63;;;;;;;9.32;100.00;103849.38;5011439;28;20533;-70
2021/12/18 12:39:59;;;;;;;4.37;1.53;;;;;;;9.10;100.00;103814.47;5021579;28;20961;-68
2021/12/18 12:42:25;;;;;;;8.03;1.60;;;;;;;9.23;100.00;103829.50;5023829;28;20206;-68
2021/12/18 12:44:59;;;;;;;6.37;1.60;;;;;;;9.02;100.00;103812.34;5027548;28;20538;-69
2021/12/18 12:47:27;;;;;;;5.93;2.00;;;;;;;9.04;100.00;103829.16;5022876;28;20179;-69
2021/12/18 12:49:55;;;;;;;8.30;1.77;;;;;;;9.04;100.00;103822.00;5024828;28;20573;-68
2021/12/18 12:52:23;;;;;;;5.37;1.70;;;;;;;9.24;100.00;103836.53;5020300;28;20477;-68
2021/12/18 12:55:02;;;;;;;4.00;1.17;;;;;;;9.21;100.00;103828.75;5019778;28;20461;-68
2021/12/18 12:57:29;;;;;;;5.57;1.47;;;;;;;9.18;100.00;103825.47;5021580;28;20450;-68
2021/12/18 12:59:58;;;;;;;8.73;1.50;;;;;;;9.25;100.00;103832.03;5015997;28;20956;-68
2021/12/18 13:02:28;;;;;;;3.43;1.50;;;;;;;9.24;100.00;103825.84;5010239;28;20519;-69
2021/12/18 13:05:02;;;;;;;3.43;1.27;;;;;;;9.23;100.00;103821.47;5012661;28;20914;-69
2021/12/18 13:07:27;;;;;;;5.40;1.87;;;;;;;9.37;100.00;103822.22;5010888;28;20451;-68
2021/12/18 13:09:53;;;;;;;6.97;1.77;;;;;;;9.22;100.00;103806.34;5017859;28;20429;-69
2021/12/18 13:12:19;;;;;;;4.80;1.60;;;;;;;9.24;100.00;103798.19;5008899;28;20217;-69
2021/12/18 13:14:46;;;;;;;6.50;2.27;;;;;;;8.98;100.00;103774.25;5009183;28;20230;-69
2021/12/18 13:17:26;;;;;;;8.83;2.00;;;;;;;8.57;100.00;103711.34;5014359;28;20191;-71
2021/12/18 13:20:05;;;;;;;6.60;1.67;;;;;;;9.19;100.00;103787.81;5008102;28;20419;-68
2021/12/18 13:22:33;;;;;;;6.93;1.60;;;;;;;9.30;100.00;103810.28;5009455;28;20918;-69
2021/12/18 13:25:01;;;;;;;7.30;1.57;;;;;;;9.33;100.00;103808.19;5011498;28;20958;-68
2021/12/18 13:27:26;;;;;;;5.40;1.70;;;;;;;8.55;100.00;103669.63;5009915;28;20529;-68
2021/12/18 13:30:21;;;;;;;6.37;1.93;;;;;;;9.38;100.00;103815.91;5018564;28;20452;-70
2021/12/18 13:32:51;;;;;;;4.50;1.77;;;;;;;9.06;100.00;103771.00;5017673;28;20271;-68
2021/12/18 13:35:17;;;;;;;7.03;1.73;;;;;;;9.10;100.00;103795.72;5021343;28;20464;-70
2021/12/18 13:38:15;;;;;;;7.47;2.43;;;;;;;9.13;100.00;103806.19;5022376;28;20700;-70
2021/12/18 13:40:49;;;;;;;5.37;2.77;;;;;;;8.58;100.00;103709.50;5007472;28;20795;-68
2021/12/18 13:43:24;;;;;;;8.17;2.63;;;;;;;8.98;100.00;103763.56;5001010;28;20478;-69
2021/12/18 13:45:56;;;;;;;7.60;2.10;;;;;;;9.09;100.00;103792.19;5002209;28;20953;-68
2021/12/18 13:48:28;;;;;;;5.83;2.27;;;;;;;8.98;100.00;103784.97;5006747;28;21069;-69
2021/12/18 13:50:56;;;;;;;4.10;2.03;;;;;;;8.72;100.00;103756.66;5012655;28;20458;-69
2021/12/18 13:53:22;;;;;;;5.77;1.60;;;;;;;9.11;100.00;103803.63;5004520;28;22010;-69
2021/12/18 13:55:55;;;;;;;9.27;2.00;;;;;;;9.14;100.00;103792.72;5017504;28;20964;-69
2021/12/18 13:58:28;;;;;;;6.43;2.20;;;;;;;8.98;100.00;103798.34;5021370;28;20183;-69
2021/12/18 14:01:00;;;;;;;5.50;2.00;;;;;;;9.17;100.00;103795.16;5018477;28;20567;-69
2021/12/18 14:03:29;;;;;;;8.03;2.20;;;;;;;9.13;100.00;103790.97;5021463;28;20516;-69
2021/12/18 14:05:58;;;;;;;4.57;1.83;;;;;;;8.65;100.00;103721.47;5017451;28;20446;-69
2021/12/18 14:08:25;;;;;;;7.80;2.70;;;;;;;9.18;100.00;103786.13;5021484;28;20434;-69
2021/12/18 14:10:52;;;;;;;9.00;2.60;;;;;;;9.01;100.00;103763.31;5020884;28;20449;-69
2021/12/18 14:13:17;;;;;;;9.00;2.83;;;;;;;9.10;100.00;103785.88;5008466;28;20958;-68
2021/12/18 14:15:43;;;;;;;3.53;1.90;;;;;;;8.83;100.00;103740.63;5019418;28;20478;-69
2021/12/18 14:18:32;;;;;;;5.23;1.87;;;;;;;8.81;100.00;103746.09;5022260;28;20225;-69
2021/12/18 14:20:59;;;;;;;9.93;2.27;;;;;;;8.78;100.00;103754.34;5022554;28;20423;-69
2021/12/18 14:23:32;;;;;;;5.53;2.30;;;;;;;8.98;100.00;103771.59;5019393;28;20565;-69
2021/12/18 14:26:10;;;;;;;7.03;2.17;;;;;;;8.89;100.00;103780.31;5020379;28;21104;-69